sensor_id;sensor_type;location;lat;lon;timestamp;temperature;humidity
22173;DHT22;11252;50.596;17.648;2023-02-07T00:01:28;-7.20;92.20
22173;DHT22;11252;50.596;17.648;2023-02-07T00:03:56;-7.20;92.20
22173;DHT22;11252;50.596;17.648;2023-02-07T00:06:35;-7.20;92.20
22173;DHT22;11252;50.596;17.648;2023-02-07T00:09:06;-7.20;92.20
22173;DHT22;11252;50.596;17.648;2023-02-07T00:11:34;-7.30;92.20
22173;DHT22;11252;50.596;17.648;2023-02-07T00:14:03;-7.20;92.20
22173;DHT22;11252;50.596;17.648;2023-02-07T00:16:30;-7.20;92.20
22173;DHT22;11252;50.596;17.648;2023-02-07T00:18:58;-7.20;92.20
22173;DHT22;11252;50.596;17.648;2023-02-07T00:21:27;-7.20;92.20
22173;DHT22;11252;50.596;17.648;2023-02-07T00:23:55;-7.30;92.20
22173;DHT22;11252;50.596;17.648;2023-02-07T00:26:24;-7.30;92.20
22173;DHT22;11252;50.596;17.648;2023-02-07T00:28:54;-7.30;92.20
22173;DHT22;11252;50.596;17.648;2023-02-07T00:31:30;-7.20;92.20
22173;DHT22;11252;50.596;17.648;2023-02-07T00:34:01;-7.30;92.20
22173;DHT22;11252;50.596;17.648;2023-02-07T00:36:30;-7.40;92.20
22173;DHT22;11252;50.596;17.648;2023-02-07T00:39:00;-7.30;92.20
22173;DHT22;11252;50.596;17.648;2023-02-07T00:41:29;-7.30;92.20
22173;DHT22;11252;50.596;17.648;2023-02-07T00:43:57;-7.40;92.20
22173;DHT22;11252;50.596;17.648;2023-02-07T00:46:25;-7.40;92.20
22173;DHT22;11252;50.596;17.648;2023-02-07T00:48:54;-7.40;92.20
22173;DHT22;11252;50.596;17.648;2023-02-07T00:51:22;-7.40;92.20
22173;DHT22;11252;50.596;17.648;2023-02-07T00:53:53;-7.40;92.20
22173;DHT22;11252;50.596;17.648;2023-02-07T00:56:22;-7.50;92.20
22173;DHT22;11252;50.596;17.648;2023-02-07T00:58:50;-7.50;92.20
22173;DHT22;11252;50.596;17.648;2023-02-07T01:01:18;-7.50;92.20
22173;DHT22;11252;50.596;17.648;2023-02-07T01:03:47;-7.50;92.20
22173;DHT22;11252;50.596;17.648;2023-02-07T01:06:15;-7.50;92.20
22173;DHT22;11252;50.596;17.648;2023-02-07T01:08:42;-7.50;92.20
22173;DHT22;11252;50.596;17.648;2023-02-07T01:11:13;-7.50;92.20
22173;DHT22;11252;50.596;17.648;2023-02-07T01:13:43;-7.50;92.20
22173;DHT22;11252;50.596;17.648;2023-02-07T01:16:37;-7.50;92.20
22173;DHT22;11252;50.596;17.648;2023-02-07T01:19:07;-7.50;92.20
22173;DHT22;11252;50.596;17.648;2023-02-07T01:21:35;-7.60;92.20
22173;DHT22;11252;50.596;17.648;2023-02-07T01:24:04;-7.60;92.20
22173;DHT22;11252;50.596;17.648;2023-02-07T01:29:18;-7.70;92.20
22173;DHT22;11252;50.596;17.648;2023-02-07T01:31:46;-7.70;92.20
22173;DHT22;11252;50.596;17.648;2023-02-07T01:34:13;-7.70;92.20
22173;DHT22;11252;50.596;17.648;2023-02-07T01:36:41;-7.70;92.20
22173;DHT22;11252;50.596;17.648;2023-02-07T01:39:09;-7.70;92.20
22173;DHT22;11252;50.596;17.648;2023-02-07T01:41:37;-7.70;92.20
22173;DHT22;11252;50.596;17.648;2023-02-07T01:46:53;-7.70;92.20
22173;DHT22;11252;50.596;17.648;2023-02-07T01:49:28;-7.70;92.20
22173;DHT22;11252;50.596;17.648;2023-02-07T01:52:10;-7.70;92.20
22173;DHT22;11252;50.596;17.648;2023-02-07T01:54:39;-7.70;92.20
22173;DHT22;11252;50.596;17.648;2023-02-07T01:57:08;-7.70;92.20
22173;DHT22;11252;50.596;17.648;2023-02-07T01:59:37;-7.70;92.20
22173;DHT22;11252;50.596;17.648;2023-02-07T02:02:11;-7.70;92.20
22173;DHT22;11252;50.596;17.648;2023-02-07T02:04:41;-7.80;92.20
22173;DHT22;11252;50.596;17.648;2023-02-07T02:07:10;-7.80;92.20
22173;DHT22;11252;50.596;17.648;2023-02-07T02:09:38;-7.90;92.20
22173;DHT22;11252;50.596;17.648;2023-02-07T02:12:28;-7.90;92.20
22173;DHT22;11252;50.596;17.648;2023-02-07T02:17:47;-7.90;92.20
22173;DHT22;11252;50.596;17.648;2023-02-07T02:28:43;-7.90;92.20
22173;DHT22;11252;50.596;17.648;2023-02-07T02:39:47;-7.90;92.20
22173;DHT22;11252;50.596;17.648;2023-02-07T02:45:14;-7.90;92.20
22173;DHT22;11252;50.596;17.648;2023-02-07T02:47:45;-7.90;92.20
22173;DHT22;11252;50.596;17.648;2023-02-07T02:50:18;-7.90;92.20
22173;DHT22;11252;50.596;17.648;2023-02-07T02:52:47;-7.90;92.20
22173;DHT22;11252;50.596;17.648;2023-02-07T02:55:29;-7.90;92.20
22173;DHT22;11252;50.596;17.648;2023-02-07T03:08:55;-8.00;92.20
22173;DHT22;11252;50.596;17.648;2023-02-07T03:11:24;-8.10;92.20
22173;DHT22;11252;50.596;17.648;2023-02-07T03:14:23;-8.10;92.20
22173;DHT22;11252;50.596;17.648;2023-02-07T03:17:00;-8.10;92.20
22173;DHT22;11252;50.596;17.648;2023-02-07T03:20:25;-8.10;92.20
22173;DHT22;11252;50.596;17.648;2023-02-07T03:22:46;-8.10;92.20
22173;DHT22;11252;50.596;17.648;2023-02-07T03:25:16;-8.10;92.20
22173;DHT22;11252;50.596;17.648;2023-02-07T03:27:45;-8.10;92.20
22173;DHT22;11252;50.596;17.648;2023-02-07T03:30:16;-8.10;92.20
22173;DHT22;11252;50.596;17.648;2023-02-07T03:32:49;-8.20;92.20
22173;DHT22;11252;50.596;17.648;2023-02-07T03:37:56;-8.20;92.20
22173;DHT22;11252;50.596;17.648;2023-02-07T03:40:29;-8.20;92.20
22173;DHT22;11252;50.596;17.648;2023-02-07T03:43:14;-8.20;92.20
22173;DHT22;11252;50.596;17.648;2023-02-07T03:45:42;-8.20;92.20
22173;DHT22;11252;50.596;17.648;2023-02-07T03:48:09;-8.30;92.20
22173;DHT22;11252;50.596;17.648;2023-02-07T03:50:37;-8.30;92.20
22173;DHT22;11252;50.596;17.648;2023-02-07T03:53:04;-8.30;92.20
22173;DHT22;11252;50.596;17.648;2023-02-07T03:55:32;-8.30;92.20
22173;DHT22;11252;50.596;17.648;2023-02-07T03:58:00;-8.30;92.20
22173;DHT22;11252;50.596;17.648;2023-02-07T04:00:28;-8.30;92.20
22173;DHT22;11252;50.596;17.648;2023-02-07T04:02:55;-8.30;92.20
22173;DHT22;11252;50.596;17.648;2023-02-07T04:05:23;-8.40;92.20
22173;DHT22;11252;50.596;17.648;2023-02-07T04:07:51;-8.40;92.20
22173;DHT22;11252;50.596;17.648;2023-02-07T04:10:18;-8.40;92.20
22173;DHT22;11252;50.596;17.648;2023-02-07T04:12:46;-8.50;92.20
22173;DHT22;11252;50.596;17.648;2023-02-07T04:15:13;-8.40;92.20
22173;DHT22;11252;50.596;17.648;2023-02-07T04:17:41;-8.50;92.20
22173;DHT22;11252;50.596;17.648;2023-02-07T04:20:09;-8.50;92.20
22173;DHT22;11252;50.596;17.648;2023-02-07T04:22:37;-8.50;92.20
22173;DHT22;11252;50.596;17.648;2023-02-07T04:25:05;-8.50;92.20
22173;DHT22;11252;50.596;17.648;2023-02-07T04:27:34;-8.60;92.20
22173;DHT22;11252;50.596;17.648;2023-02-07T04:30:05;-8.60;92.20
22173;DHT22;11252;50.596;17.648;2023-02-07T04:32:33;-8.50;92.20
22173;DHT22;11252;50.596;17.648;2023-02-07T04:35:01;-8.50;92.20
22173;DHT22;11252;50.596;17.648;2023-02-07T04:37:29;-8.50;92.20
22173;DHT22;11252;50.596;17.648;2023-02-07T04:39:57;-8.50;92.20
22173;DHT22;11252;50.596;17.648;2023-02-07T04:42:25;-8.50;92.20
22173;DHT22;11252;50.596;17.648;2023-02-07T04:44:52;-8.50;92.20
22173;DHT22;11252;50.596;17.648;2023-02-07T04:47:20;-8.50;92.20
22173;DHT22;11252;50.596;17.648;2023-02-07T04:49:47;-8.60;92.20
22173;DHT22;11252;50.596;17.648;2023-02-07T04:52:15;-8.50;92.20
22173;DHT22;11252;50.596;17.648;2023-02-07T04:54:42;-8.60;92.20
22173;DHT22;11252;50.596;17.648;2023-02-07T04:57:09;-8.60;92.20
22173;DHT22;11252;50.596;17.648;2023-02-07T04:59:38;-8.60;92.20
22173;DHT22;11252;50.596;17.648;2023-02-07T05:02:06;-8.60;92.20
22173;DHT22;11252;50.596;17.648;2023-02-07T05:04:34;-8.60;92.20
22173;DHT22;11252;50.596;17.648;2023-02-07T05:07:01;-8.60;92.20
22173;DHT22;11252;50.596;17.648;2023-02-07T05:09:29;-8.60;92.20
22173;DHT22;11252;50.596;17.648;2023-02-07T05:11:56;-8.60;92.20
22173;DHT22;11252;50.596;17.648;2023-02-07T05:14:24;-8.50;92.20
22173;DHT22;11252;50.596;17.648;2023-02-07T05:16:52;-8.50;92.20
22173;DHT22;11252;50.596;17.648;2023-02-07T05:19:20;-8.50;92.20
22173;DHT22;11252;50.596;17.648;2023-02-07T05:21:47;-8.60;92.20
22173;DHT22;11252;50.596;17.648;2023-02-07T05:24:15;-8.60;92.20
22173;DHT22;11252;50.596;17.648;2023-02-07T05:26:43;-8.60;92.20
22173;DHT22;11252;50.596;17.648;2023-02-07T05:29:11;-8.60;92.20
22173;DHT22;11252;50.596;17.648;2023-02-07T05:31:38;-8.60;92.20
22173;DHT22;11252;50.596;17.648;2023-02-07T05:34:24;-8.60;92.20
22173;DHT22;11252;50.596;17.648;2023-02-07T05:36:51;-8.70;92.20
22173;DHT22;11252;50.596;17.648;2023-02-07T05:39:19;-8.70;92.20
22173;DHT22;11252;50.596;17.648;2023-02-07T05:41:46;-8.70;92.20
22173;DHT22;11252;50.596;17.648;2023-02-07T05:44:13;-8.70;92.20
22173;DHT22;11252;50.596;17.648;2023-02-07T05:46:41;-8.70;92.20
22173;DHT22;11252;50.596;17.648;2023-02-07T05:49:08;-8.70;92.20
22173;DHT22;11252;50.596;17.648;2023-02-07T05:51:36;-8.70;92.20
22173;DHT22;11252;50.596;17.648;2023-02-07T05:54:03;-8.70;92.20
22173;DHT22;11252;50.596;17.648;2023-02-07T05:56:31;-8.80;92.20
22173;DHT22;11252;50.596;17.648;2023-02-07T05:58:59;-8.80;92.20
22173;DHT22;11252;50.596;17.648;2023-02-07T06:01:28;-8.80;92.20
22173;DHT22;11252;50.596;17.648;2023-02-07T06:03:56;-8.80;92.20
22173;DHT22;11252;50.596;17.648;2023-02-07T06:06:24;-8.80;92.20
22173;DHT22;11252;50.596;17.648;2023-02-07T06:08:51;-8.80;92.20
22173;DHT22;11252;50.596;17.648;2023-02-07T06:11:19;-8.80;92.20
22173;DHT22;11252;50.596;17.648;2023-02-07T06:13:47;-8.80;92.20
22173;DHT22;11252;50.596;17.648;2023-02-07T06:16:14;-8.80;92.20
22173;DHT22;11252;50.596;17.648;2023-02-07T06:18:42;-8.70;92.20
22173;DHT22;11252;50.596;17.648;2023-02-07T06:21:09;-8.80;92.20
22173;DHT22;11252;50.596;17.648;2023-02-07T06:23:37;-8.70;92.20
22173;DHT22;11252;50.596;17.648;2023-02-07T06:26:05;-8.80;92.20
22173;DHT22;11252;50.596;17.648;2023-02-07T06:28:32;-8.70;92.20
22173;DHT22;11252;50.596;17.648;2023-02-07T06:31:00;-8.80;92.20
22173;DHT22;11252;50.596;17.648;2023-02-07T06:33:28;-8.80;92.20
22173;DHT22;11252;50.596;17.648;2023-02-07T06:35:56;-8.70;92.20
22173;DHT22;11252;50.596;17.648;2023-02-07T06:38:23;-8.70;92.20
22173;DHT22;11252;50.596;17.648;2023-02-07T06:40:51;-8.70;92.20
22173;DHT22;11252;50.596;17.648;2023-02-07T06:43:18;-8.70;92.20
22173;DHT22;11252;50.596;17.648;2023-02-07T06:45:46;-8.50;92.20
22173;DHT22;11252;50.596;17.648;2023-02-07T06:48:14;-8.50;92.20
22173;DHT22;11252;50.596;17.648;2023-02-07T06:50:42;-8.50;92.20
22173;DHT22;11252;50.596;17.648;2023-02-07T06:53:09;-8.50;92.20
22173;DHT22;11252;50.596;17.648;2023-02-07T06:55:38;-8.50;92.20
22173;DHT22;11252;50.596;17.648;2023-02-07T06:58:06;-8.50;92.20
22173;DHT22;11252;50.596;17.648;2023-02-07T07:00:34;-8.50;92.20
22173;DHT22;11252;50.596;17.648;2023-02-07T07:03:02;-8.40;92.20
22173;DHT22;11252;50.596;17.648;2023-02-07T07:05:31;-8.40;92.20
22173;DHT22;11252;50.596;17.648;2023-02-07T07:07:59;-8.30;92.20
22173;DHT22;11252;50.596;17.648;2023-02-07T07:10:26;-8.20;92.20
22173;DHT22;11252;50.596;17.648;2023-02-07T07:12:54;-8.10;92.20
22173;DHT22;11252;50.596;17.648;2023-02-07T07:15:21;-8.10;92.20
22173;DHT22;11252;50.596;17.648;2023-02-07T07:17:49;-8.00;92.20
22173;DHT22;11252;50.596;17.648;2023-02-07T07:20:16;-7.90;92.20
22173;DHT22;11252;50.596;17.648;2023-02-07T07:22:44;-7.80;92.20
22173;DHT22;11252;50.596;17.648;2023-02-07T07:25:11;-7.70;92.20
22173;DHT22;11252;50.596;17.648;2023-02-07T07:27:39;-7.60;92.20
22173;DHT22;11252;50.596;17.648;2023-02-07T07:30:07;-7.50;92.20
22173;DHT22;11252;50.596;17.648;2023-02-07T07:32:36;-7.50;92.20
22173;DHT22;11252;50.596;17.648;2023-02-07T07:35:04;-7.40;92.20
22173;DHT22;11252;50.596;17.648;2023-02-07T07:37:32;-7.20;92.20
22173;DHT22;11252;50.596;17.648;2023-02-07T07:40:00;-7.10;92.20
22173;DHT22;11252;50.596;17.648;2023-02-07T07:42:27;-7.00;92.20
22173;DHT22;11252;50.596;17.648;2023-02-07T07:44:55;-6.90;92.20
22173;DHT22;11252;50.596;17.648;2023-02-07T07:47:22;-6.90;92.20
22173;DHT22;11252;50.596;17.648;2023-02-07T07:49:51;-6.80;92.20
22173;DHT22;11252;50.596;17.648;2023-02-07T07:52:19;-6.80;92.20
22173;DHT22;11252;50.596;17.648;2023-02-07T07:54:47;-6.60;92.20
22173;DHT22;11252;50.596;17.648;2023-02-07T07:57:14;-6.50;92.20
22173;DHT22;11252;50.596;17.648;2023-02-07T07:59:42;-6.40;92.20
22173;DHT22;11252;50.596;17.648;2023-02-07T08:02:12;-6.30;92.20
22173;DHT22;11252;50.596;17.648;2023-02-07T08:04:39;-6.10;92.20
22173;DHT22;11252;50.596;17.648;2023-02-07T08:07:07;-6.10;92.20
22173;DHT22;11252;50.596;17.648;2023-02-07T08:09:35;-5.90;92.20
22173;DHT22;11252;50.596;17.648;2023-02-07T08:12:02;-5.80;92.20
22173;DHT22;11252;50.596;17.648;2023-02-07T08:14:30;-5.80;92.20
22173;DHT22;11252;50.596;17.648;2023-02-07T08:16:57;-5.70;92.20
22173;DHT22;11252;50.596;17.648;2023-02-07T08:19:25;-5.50;92.20
22173;DHT22;11252;50.596;17.648;2023-02-07T08:21:53;-5.40;92.20
22173;DHT22;11252;50.596;17.648;2023-02-07T08:24:21;-5.20;92.20
22173;DHT22;11252;50.596;17.648;2023-02-07T08:26:48;-5.10;92.20
22173;DHT22;11252;50.596;17.648;2023-02-07T08:29:15;-4.90;92.20
22173;DHT22;11252;50.596;17.648;2023-02-07T08:31:43;-4.70;92.20
22173;DHT22;11252;50.596;17.648;2023-02-07T08:34:10;-4.50;92.20
22173;DHT22;11252;50.596;17.648;2023-02-07T08:36:38;-4.40;92.20
22173;DHT22;11252;50.596;17.648;2023-02-07T08:39:07;-4.30;92.20
22173;DHT22;11252;50.596;17.648;2023-02-07T08:41:35;-4.20;92.20
22173;DHT22;11252;50.596;17.648;2023-02-07T08:44:02;-4.20;92.20
22173;DHT22;11252;50.596;17.648;2023-02-07T08:46:30;-4.00;92.20
22173;DHT22;11252;50.596;17.648;2023-02-07T08:48:57;-3.80;92.20
22173;DHT22;11252;50.596;17.648;2023-02-07T08:51:25;-3.60;92.20
22173;DHT22;11252;50.596;17.648;2023-02-07T08:53:53;-3.70;92.20
22173;DHT22;11252;50.596;17.648;2023-02-07T08:56:20;-3.70;92.20
22173;DHT22;11252;50.596;17.648;2023-02-07T08:58:47;-3.40;92.20
22173;DHT22;11252;50.596;17.648;2023-02-07T09:01:15;-3.40;92.20
22173;DHT22;11252;50.596;17.648;2023-02-07T09:03:43;-3.30;92.20
22173;DHT22;11252;50.596;17.648;2023-02-07T09:06:10;-3.30;92.20
22173;DHT22;11252;50.596;17.648;2023-02-07T09:08:38;-3.20;92.20
22173;DHT22;11252;50.596;17.648;2023-02-07T09:11:06;-3.00;92.20
22173;DHT22;11252;50.596;17.648;2023-02-07T09:13:35;-2.90;92.20
22173;DHT22;11252;50.596;17.648;2023-02-07T09:16:03;-2.90;92.20
22173;DHT22;11252;50.596;17.648;2023-02-07T09:18:31;-2.80;92.20
22173;DHT22;11252;50.596;17.648;2023-02-07T09:20:59;-2.70;92.20
22173;DHT22;11252;50.596;17.648;2023-02-07T09:23:26;-2.50;92.20
22173;DHT22;11252;50.596;17.648;2023-02-07T09:25:54;-2.50;92.20
22173;DHT22;11252;50.596;17.648;2023-02-07T09:28:26;-2.50;92.20
22173;DHT22;11252;50.596;17.648;2023-02-07T09:30:54;-2.60;92.20
22173;DHT22;11252;50.596;17.648;2023-02-07T09:33:22;-2.50;92.20
22173;DHT22;11252;50.596;17.648;2023-02-07T09:35:50;-2.50;92.20
22173;DHT22;11252;50.596;17.648;2023-02-07T09:38:20;-2.50;92.20
22173;DHT22;11252;50.596;17.648;2023-02-07T09:40:51;-2.40;92.20
22173;DHT22;11252;50.596;17.648;2023-02-07T09:46:20;-2.20;92.20
22173;DHT22;11252;50.596;17.648;2023-02-07T09:48:56;-2.10;92.20
22173;DHT22;11252;50.596;17.648;2023-02-07T09:51:25;-2.10;92.20
22173;DHT22;11252;50.596;17.648;2023-02-07T09:54:19;-2.10;92.20
22173;DHT22;11252;50.596;17.648;2023-02-07T09:56:43;-2.10;92.20
22173;DHT22;11252;50.596;17.648;2023-02-07T09:59:37;-2.10;92.20
22173;DHT22;11252;50.596;17.648;2023-02-07T10:02:24;-2.10;92.20
22173;DHT22;11252;50.596;17.648;2023-02-07T10:04:56;-1.80;92.20
22173;DHT22;11252;50.596;17.648;2023-02-07T10:07:25;-1.80;92.20
22173;DHT22;11252;50.596;17.648;2023-02-07T10:09:52;-1.80;92.20
22173;DHT22;11252;50.596;17.648;2023-02-07T10:21:13;-1.10;92.20
22173;DHT22;11252;50.596;17.648;2023-02-07T10:26:37;-0.80;92.20
22173;DHT22;11252;50.596;17.648;2023-02-07T10:31:47;-0.60;92.20
22173;DHT22;11252;50.596;17.648;2023-02-07T10:34:22;-0.60;92.20
22173;DHT22;11252;50.596;17.648;2023-02-07T10:36:51;-0.60;92.20
22173;DHT22;11252;50.596;17.648;2023-02-07T10:39:36;-0.60;92.20
22173;DHT22;11252;50.596;17.648;2023-02-07T10:42:04;-0.60;92.20
22173;DHT22;11252;50.596;17.648;2023-02-07T10:44:32;-0.40;92.20
22173;DHT22;11252;50.596;17.648;2023-02-07T10:47:03;-0.40;92.20
22173;DHT22;11252;50.596;17.648;2023-02-07T10:49:37;-0.30;92.20
22173;DHT22;11252;50.596;17.648;2023-02-07T10:52:27;-0.20;92.20
22173;DHT22;11252;50.596;17.648;2023-02-07T10:54:58;-0.20;92.20
22173;DHT22;11252;50.596;17.648;2023-02-07T10:57:28;-0.30;92.20
22173;DHT22;11252;50.596;17.648;2023-02-07T10:59:59;-0.20;92.20
22173;DHT22;11252;50.596;17.648;2023-02-07T11:05:08;-0.10;92.20
22173;DHT22;11252;50.596;17.648;2023-02-07T11:10:40;-0.20;92.20
22173;DHT22;11252;50.596;17.648;2023-02-07T11:13:17;-0.10;92.20
22173;DHT22;11252;50.596;17.648;2023-02-07T11:18:34;-0.20;92.20
22173;DHT22;11252;50.596;17.648;2023-02-07T11:23:47;0.00;92.20
22173;DHT22;11252;50.596;17.648;2023-02-07T11:26:17;0.00;92.20
22173;DHT22;11252;50.596;17.648;2023-02-07T11:29:00;0.00;92.20
22173;DHT22;11252;50.596;17.648;2023-02-07T11:31:30;0.00;92.20
22173;DHT22;11252;50.596;17.648;2023-02-07T11:34:29;0.00;92.20
22173;DHT22;11252;50.596;17.648;2023-02-07T11:39:44;0.10;92.20
22173;DHT22;11252;50.596;17.648;2023-02-07T11:42:18;0.10;92.20
22173;DHT22;11252;50.596;17.648;2023-02-07T11:44:47;0.00;92.20
22173;DHT22;11252;50.596;17.648;2023-02-07T11:47:25;0.00;92.20
22173;DHT22;11252;50.596;17.648;2023-02-07T11:49:59;0.10;92.20
22173;DHT22;11252;50.596;17.648;2023-02-07T11:52:31;0.10;92.20
22173;DHT22;11252;50.596;17.648;2023-02-07T11:55:05;0.20;92.20
22173;DHT22;11252;50.596;17.648;2023-02-07T11:57:33;0.30;92.20
22173;DHT22;11252;50.596;17.648;2023-02-07T12:00:19;0.30;92.20
22173;DHT22;11252;50.596;17.648;2023-02-07T12:05:58;0.20;92.20
22173;DHT22;11252;50.596;17.648;2023-02-07T12:08:31;0.20;92.20
22173;DHT22;11252;50.596;17.648;2023-02-07T12:11:15;0.10;92.20
22173;DHT22;11252;50.596;17.648;2023-02-07T12:13:49;0.20;92.20
22173;DHT22;11252;50.596;17.648;2023-02-07T12:19:46;0.10;92.20
22173;DHT22;11252;50.596;17.648;2023-02-07T12:22:00;0.00;92.20
22173;DHT22;11252;50.596;17.648;2023-02-07T12:24:51;0.00;92.20
22173;DHT22;11252;50.596;17.648;2023-02-07T12:27:24;0.00;92.20
22173;DHT22;11252;50.596;17.648;2023-02-07T12:30:16;-0.10;92.20
22173;DHT22;11252;50.596;17.648;2023-02-07T12:38:25;0.00;92.20
22173;DHT22;11252;50.596;17.648;2023-02-07T12:41:07;0.00;92.20
22173;DHT22;11252;50.596;17.648;2023-02-07T12:43:49;0.00;92.20
22173;DHT22;11252;50.596;17.648;2023-02-07T12:52:16;0.00;92.20
22173;DHT22;11252;50.596;17.648;2023-02-07T13:09:40;0.10;92.20
22173;DHT22;11252;50.596;17.648;2023-02-07T13:12:11;0.00;92.20
22173;DHT22;11252;50.596;17.648;2023-02-07T13:15:08;0.00;92.20
22173;DHT22;11252;50.596;17.648;2023-02-07T13:23:00;0.00;92.20
22173;DHT22;11252;50.596;17.648;2023-02-07T13:25:39;0.00;92.20
22173;DHT22;11252;50.596;17.648;2023-02-07T13:28:23;0.10;92.20
22173;DHT22;11252;50.596;17.648;2023-02-07T13:30:53;0.00;92.20
22173;DHT22;11252;50.596;17.648;2023-02-07T13:33:39;0.00;92.20
22173;DHT22;11252;50.596;17.648;2023-02-07T13:36:26;-0.10;92.20
22173;DHT22;11252;50.596;17.648;2023-02-07T13:39:02;0.00;92.20
22173;DHT22;11252;50.596;17.648;2023-02-07T13:47:14;0.00;92.20
22173;DHT22;11252;50.596;17.648;2023-02-07T13:55:48;-0.10;92.20
22173;DHT22;11252;50.596;17.648;2023-02-07T14:01:25;-0.20;92.20
22173;DHT22;11252;50.596;17.648;2023-02-07T14:04:12;-0.30;92.20
22173;DHT22;11252;50.596;17.648;2023-02-07T14:06:45;-0.30;92.20
22173;DHT22;11252;50.596;17.648;2023-02-07T14:09:33;-0.40;92.20
22173;DHT22;11252;50.596;17.648;2023-02-07T14:12:07;-0.40;92.20
22173;DHT22;11252;50.596;17.648;2023-02-07T14:14:39;-0.40;92.20
22173;DHT22;11252;50.596;17.648;2023-02-07T14:19:57;-0.40;92.20
22173;DHT22;11252;50.596;17.648;2023-02-07T14:30:58;-0.40;92.20
22173;DHT22;11252;50.596;17.648;2023-02-07T14:33:40;-0.40;92.20
22173;DHT22;11252;50.596;17.648;2023-02-07T14:39:03;-0.40;92.20
22173;DHT22;11252;50.596;17.648;2023-02-07T14:41:36;-0.50;92.20
22173;DHT22;11252;50.596;17.648;2023-02-07T14:44:34;-0.50;92.20
22173;DHT22;11252;50.596;17.648;2023-02-07T14:47:04;-0.50;92.20
22173;DHT22;11252;50.596;17.648;2023-02-07T14:49:45;-0.50;92.20
22173;DHT22;11252;50.596;17.648;2023-02-07T14:52:21;-0.50;92.20
22173;DHT22;11252;50.596;17.648;2023-02-07T14:57:55;-0.60;92.20
22173;DHT22;11252;50.596;17.648;2023-02-07T15:00:50;-0.60;92.20
22173;DHT22;11252;50.596;17.648;2023-02-07T15:03:21;-0.60;92.20
22173;DHT22;11252;50.596;17.648;2023-02-07T15:05:52;-0.60;92.20
22173;DHT22;11252;50.596;17.648;2023-02-07T15:08:22;-0.60;92.20
22173;DHT22;11252;50.596;17.648;2023-02-07T15:10:54;-0.70;92.20
22173;DHT22;11252;50.596;17.648;2023-02-07T15:13:24;-0.70;92.20
22173;DHT22;11252;50.596;17.648;2023-02-07T15:16:00;-0.70;92.20
22173;DHT22;11252;50.596;17.648;2023-02-07T15:18:54;-0.70;92.20
22173;DHT22;11252;50.596;17.648;2023-02-07T15:21:43;-0.70;92.20
22173;DHT22;11252;50.596;17.648;2023-02-07T15:24:37;-0.70;92.20
22173;DHT22;11252;50.596;17.648;2023-02-07T15:27:26;-0.70;92.20
22173;DHT22;11252;50.596;17.648;2023-02-07T15:29:57;-0.70;92.20
22173;DHT22;11252;50.596;17.648;2023-02-07T15:32:31;-0.70;92.20
22173;DHT22;11252;50.596;17.648;2023-02-07T15:35:19;-0.80;92.20
22173;DHT22;11252;50.596;17.648;2023-02-07T15:38:20;-0.80;92.20
22173;DHT22;11252;50.596;17.648;2023-02-07T15:40:49;-0.80;92.20
22173;DHT22;11252;50.596;17.648;2023-02-07T15:43:28;-0.80;92.20
22173;DHT22;11252;50.596;17.648;2023-02-07T15:46:06;-0.80;92.20
22173;DHT22;11252;50.596;17.648;2023-02-07T15:48:52;-0.90;92.20
22173;DHT22;11252;50.596;17.648;2023-02-07T15:51:31;-0.90;92.20
22173;DHT22;11252;50.596;17.648;2023-02-07T15:54:02;-0.90;92.20
22173;DHT22;11252;50.596;17.648;2023-02-07T15:56:30;-0.90;92.20
22173;DHT22;11252;50.596;17.648;2023-02-07T15:59:09;-0.90;92.20
22173;DHT22;11252;50.596;17.648;2023-02-07T16:01:37;-0.80;92.20
22173;DHT22;11252;50.596;17.648;2023-02-07T16:04:07;-0.80;92.20
22173;DHT22;11252;50.596;17.648;2023-02-07T16:06:36;-0.90;92.20
22173;DHT22;11252;50.596;17.648;2023-02-07T16:09:04;-0.90;92.20
22173;DHT22;11252;50.596;17.648;2023-02-07T16:11:36;-0.80;92.20
22173;DHT22;11252;50.596;17.648;2023-02-07T16:14:20;-0.80;92.20
22173;DHT22;11252;50.596;17.648;2023-02-07T16:16:54;-0.80;92.20
22173;DHT22;11252;50.596;17.648;2023-02-07T16:19:28;-0.90;92.20
22173;DHT22;11252;50.596;17.648;2023-02-07T16:22:25;-0.90;92.20
22173;DHT22;11252;50.596;17.648;2023-02-07T16:24:59;-0.80;92.20
22173;DHT22;11252;50.596;17.648;2023-02-07T16:27:29;-0.80;92.20
22173;DHT22;11252;50.596;17.648;2023-02-07T16:30:00;-0.90;92.20
22173;DHT22;11252;50.596;17.648;2023-02-07T16:32:32;-0.90;92.20
22173;DHT22;11252;50.596;17.648;2023-02-07T16:35:00;-0.90;92.20
22173;DHT22;11252;50.596;17.648;2023-02-07T16:37:27;-0.90;92.20
22173;DHT22;11252;50.596;17.648;2023-02-07T16:39:55;-0.90;92.20
22173;DHT22;11252;50.596;17.648;2023-02-07T16:42:23;-0.90;92.20
22173;DHT22;11252;50.596;17.648;2023-02-07T16:44:51;-0.90;92.20
22173;DHT22;11252;50.596;17.648;2023-02-07T16:47:20;-0.90;92.20
22173;DHT22;11252;50.596;17.648;2023-02-07T16:49:47;-1.00;92.20
22173;DHT22;11252;50.596;17.648;2023-02-07T16:52:15;-1.00;92.20
22173;DHT22;11252;50.596;17.648;2023-02-07T16:54:42;-1.00;92.20
22173;DHT22;11252;50.596;17.648;2023-02-07T16:57:13;-1.00;92.20
22173;DHT22;11252;50.596;17.648;2023-02-07T16:59:41;-1.00;92.20
22173;DHT22;11252;50.596;17.648;2023-02-07T17:02:17;-1.00;92.20
22173;DHT22;11252;50.596;17.648;2023-02-07T17:04:46;-0.90;92.20
22173;DHT22;11252;50.596;17.648;2023-02-07T17:07:14;-0.90;92.20
22173;DHT22;11252;50.596;17.648;2023-02-07T17:09:42;-0.90;92.20
22173;DHT22;11252;50.596;17.648;2023-02-07T17:12:14;-0.90;92.20
22173;DHT22;11252;50.596;17.648;2023-02-07T17:14:43;-0.90;92.20
22173;DHT22;11252;50.596;17.648;2023-02-07T17:17:11;-0.90;92.20
22173;DHT22;11252;50.596;17.648;2023-02-07T17:19:39;-0.90;92.20
22173;DHT22;11252;50.596;17.648;2023-02-07T17:22:06;-0.90;92.20
22173;DHT22;11252;50.596;17.648;2023-02-07T17:24:34;-0.90;92.20
22173;DHT22;11252;50.596;17.648;2023-02-07T17:27:05;-1.00;92.20
22173;DHT22;11252;50.596;17.648;2023-02-07T17:29:33;-1.00;92.20
22173;DHT22;11252;50.596;17.648;2023-02-07T17:32:00;-1.00;92.20
22173;DHT22;11252;50.596;17.648;2023-02-07T17:34:28;-1.00;92.20
22173;DHT22;11252;50.596;17.648;2023-02-07T17:36:56;-0.90;92.20
22173;DHT22;11252;50.596;17.648;2023-02-07T17:39:23;-1.00;92.20
22173;DHT22;11252;50.596;17.648;2023-02-07T17:41:51;-1.00;92.20
22173;DHT22;11252;50.596;17.648;2023-02-07T17:44:19;-1.00;92.20
22173;DHT22;11252;50.596;17.648;2023-02-07T17:46:49;-0.90;92.20
22173;DHT22;11252;50.596;17.648;2023-02-07T17:49:17;-1.00;92.20
22173;DHT22;11252;50.596;17.648;2023-02-07T17:51:45;-1.00;92.20
22173;DHT22;11252;50.596;17.648;2023-02-07T17:54:12;-1.00;92.20
22173;DHT22;11252;50.596;17.648;2023-02-07T17:56:40;-1.00;92.20
22173;DHT22;11252;50.596;17.648;2023-02-07T17:59:22;-1.00;92.20
22173;DHT22;11252;50.596;17.648;2023-02-07T18:01:50;-1.10;92.20
22173;DHT22;11252;50.596;17.648;2023-02-07T18:04:17;-1.10;92.20
22173;DHT22;11252;50.596;17.648;2023-02-07T18:06:45;-1.10;92.20